Time;durP1;ratioP1;P1;durP2;ratioP2;P2;SDS_P1;SDS_P2;PMS_P1;PMS_P2;Temp;Humidity;BMP_temperature;BMP_pressure;BME280_temperature;BME280_humidity;BME280_pressure;Samples;Min_cycle;Max_cycle;Signal;HPM_P1;HPM_P2
2021/01/21 00:02:15;;;;;;;35.45;18.37;;;;;;;2.54;81.34;99682.41;1730583;80;27402;-78
2021/01/21 00:04:43;;;;;;;33.63;16.30;;;;;;;2.55;81.35;99688.02;1754165;80;25847;-79
2021/01/21 00:07:10;;;;;;;39.33;16.73;;;;;;;2.55;81.28;99688.02;1776691;80;25819;-79
2021/01/21 00:09:38;;;;;;;33.88;17.95;;;;;;;2.55;81.30;99690.17;1754081;80;26443;-79
2021/01/21 00:12:07;;;;;;;34.67;16.42;;;;;;;2.54;81.22;99685.88;1699343;80;26168;-78
2021/01/21 00:14:35;;;;;;;43.95;18.27;;;;;;;2.55;81.24;99691.98;1694086;82;26910;-79
2021/01/21 00:17:02;;;;;;;44.55;19.87;;;;;;;2.54;81.16;99688.53;1696551;82;25915;-79
2021/01/21 00:19:30;;;;;;;39.88;17.62;;;;;;;2.54;81.17;99685.05;1714093;82;25919;-79
2021/01/21 00:21:57;;;;;;;40.45;20.32;;;;;;;2.53;81.11;99686.02;1695550;82;26468;-79
2021/01/21 00:24:25;;;;;;;37.13;17.90;;;;;;;2.52;81.09;99685.22;1718332;82;25954;-79
2021/01/21 00:26:52;;;;;;;37.67;17.62;;;;;;;2.53;81.10;99689.50;1708978;82;27211;-79
2021/01/21 00:29:20;;;;;;;40.38;20.12;;;;;;;2.52;81.06;99689.66;1713308;83;26141;-79
2021/01/21 00:31:48;;;;;;;42.83;20.45;;;;;;;2.51;81.05;99691.47;1691085;82;25764;-78
2021/01/21 00:34:15;;;;;;;38.95;17.40;;;;;;;2.51;81.05;99692.80;1713305;82;25908;-78
2021/01/21 00:36:43;;;;;;;39.78;18.80;;;;;;;2.51;81.04;99690.64;1690379;82;25825;-79
2021/01/21 00:39:10;;;;;;;38.92;18.23;;;;;;;2.52;81.05;99690.50;1698901;82;28108;-78
2021/01/21 00:41:38;;;;;;;39.05;18.62;;;;;;;2.53;81.06;99690.83;1722531;81;25896;-78
2021/01/21 00:44:06;;;;;;;41.85;18.40;;;;;;;2.54;80.93;99695.14;1700409;82;26574;-79
2021/01/21 00:46:33;;;;;;;34.15;17.10;;;;;;;2.51;80.93;99685.35;1688610;82;25663;-79
2021/01/21 00:49:01;;;;;;;41.42;18.90;;;;;;;2.50;80.87;99685.87;1698874;82;25758;-78
2021/01/21 00:51:29;;;;;;;40.12;18.37;;;;;;;2.48;80.92;99688.33;1722329;82;28505;-78
2021/01/21 00:53:56;;;;;;;40.73;19.07;;;;;;;2.49;80.97;99689.97;1684616;82;25918;-79
2021/01/21 00:56:24;;;;;;;36.60;17.98;;;;;;;2.50;81.00;99687.67;1693924;82;25929;-78
2021/01/21 00:58:52;;;;;;;41.13;18.70;;;;;;;2.49;80.92;99686.84;1712900;82;25853;-78
2021/01/21 01:01:19;;;;;;;40.15;18.90;;;;;;;2.48;80.85;99683.05;1731772;81;25915;-79
2021/01/21 01:03:48;;;;;;;36.68;18.17;;;;;;;2.46;80.92;99683.17;1721764;81;27544;-79
2021/01/21 01:06:16;;;;;;;35.70;18.52;;;;;;;2.49;80.95;99683.36;1703184;82;26489;-79
2021/01/21 01:08:44;;;;;;;39.75;18.60;;;;;;;2.48;80.93;99677.76;1729650;80;26438;-79
2021/01/21 01:11:12;;;;;;;36.80;17.65;;;;;;;2.47;80.90;99683.53;1759329;80;26501;-79
2021/01/21 01:13:40;;;;;;;35.92;17.00;;;;;;;2.48;80.93;99683.05;1734166;80;26276;-78
2021/01/21 01:16:17;;;;;;;36.68;18.40;;;;;;;2.53;80.88;99682.89;1823851;77;25759;-79
2021/01/21 01:18:57;;;;;;;43.58;19.65;;;;;;;2.54;80.95;99678.44;1794235;79;25726;-78
2021/01/21 01:21:24;;;;;;;29.48;15.63;;;;;;;2.50;80.89;99678.42;1714101;82;25892;-79
2021/01/21 01:23:52;;;;;;;36.98;18.90;;;;;;;2.51;80.90;99680.06;1712337;80;28587;-79
2021/01/21 01:26:21;;;;;;;40.48;18.95;;;;;;;2.51;80.91;99678.75;1688905;82;26069;-79
2021/01/21 01:28:49;;;;;;;33.95;17.70;;;;;;;2.51;80.87;99682.22;1734279;82;25782;-79
2021/01/21 01:31:17;;;;;;;36.08;17.57;;;;;;;2.51;80.87;99679.58;1685499;82;25867;-79
2021/01/21 01:33:45;;;;;;;37.03;17.30;;;;;;;2.50;80.76;99670.01;1696671;82;26396;-79
2021/01/21 01:36:12;;;;;;;32.20;17.23;;;;;;;2.49;80.74;99670.14;1703908;82;28293;-79
2021/01/21 01:38:40;;;;;;;35.78;17.05;;;;;;;2.48;80.68;99666.66;1704797;82;25826;-79
2021/01/21 01:41:21;;;;;;;41.55;18.52;;;;;;;2.45;80.70;99661.72;1704805;82;25725;-79
2021/01/21 01:43:49;;;;;;;37.50;19.12;;;;;;;2.45;80.71;99661.72;1690677;82;25971;-79
2021/01/21 01:46:18;;;;;;;35.95;17.95;;;;;;;2.45;80.75;99667.48;1709156;82;25982;-79
2021/01/21 01:48:45;;;;;;;41.37;20.57;;;;;;;2.45;80.67;99670.97;1737729;82;28738;-79
2021/01/21 01:51:13;;;;;;;36.00;18.52;;;;;;;2.45;80.73;99662.20;1687031;82;25974;-80
2021/01/21 01:53:42;;;;;;;41.70;20.02;;;;;;;2.49;80.76;99669.66;1727966;82;25950;-78
2021/01/21 01:56:11;;;;;;;38.25;17.75;;;;;;;2.51;80.57;99673.45;1712852;82;26150;-79
2021/01/21 01:58:41;;;;;;;39.58;19.62;;;;;;;2.48;80.25;99667.19;1709468;82;25997;-78
2021/01/21 02:01:16;;;;;;;37.78;18.82;;;;;;;2.45;80.34;99668.80;1712480;82;28461;-79
2021/01/21 02:03:43;;;;;;;;;;;;;;;2.45;80.41;99667.00;1685839;82;26438;-79
2021/01/21 02:06:12;;;;;;;36.20;19.10;;;;;;;2.45;80.31;99668.80;1725867;81;25883;-78
2021/01/21 02:08:40;;;;;;;38.98;20.23;;;;;;;2.43;80.38;99667.66;1652003;85;25911;-78
2021/01/21 02:11:48;;;;;;;37.70;18.98;;;;;;;2.43;80.34;99665.50;1660097;85;25845;-78
2021/01/21 02:14:29;;;;;;;39.25;18.65;;;;;;;2.42;80.36;99669.95;1672166;85;27531;-79
2021/01/21 02:17:05;;;;;;;37.70;18.85;;;;;;;2.40;80.35;99670.59;1645850;85;25435;-79
2021/01/21 02:20:18;;;;;;;38.90;19.40;;;;;;;2.41;80.29;99670.95;1827156;77;25752;-82
2021/01/21 02:23:20;;;;;;;37.73;19.40;;;;;;;2.34;80.38;99670.75;1793588;78;25750;-79
2021/01/21 02:25:56;;;;;;;42.65;20.32;;;;;;;2.32;80.51;99668.75;1780608;78;27074;-79
2021/01/21 02:28:52;;;;;;;38.17;20.68;;;;;;;2.33;80.55;99663.79;1763760;80;25814;-79
2021/01/21 02:31:47;;;;;;;41.85;19.62;;;;;;;2.33;80.50;99665.63;1765281;80;25442;-79
2021/01/21 02:34:20;;;;;;;45.03;21.55;;;;;;;2.33;80.49;99666.44;1744943;81;26446;-79
2021/01/21 02:36:52;;;;;;;43.95;20.80;;;;;;;2.36;80.61;99669.26;1739485;80;26034;-78
2021/01/21 02:39:35;;;;;;;42.93;20.57;;;;;;;2.43;80.57;99662.37;1795720;79;25846;-79
2021/01/21 02:42:06;;;;;;;44.27;20.95;;;;;;;2.40;80.49;99660.03;1686274;80;26315;-78
2021/01/21 02:44:34;;;;;;;42.58;20.65;;;;;;;2.40;80.42;99660.03;1609790;85;28476;-79
2021/01/21 02:47:01;;;;;;;46.00;21.82;;;;;;;2.41;80.40;99665.66;1664636;84;25956;-79
2021/01/21 02:49:30;;;;;;;40.90;20.40;;;;;;;2.42;80.43;99662.02;1634717;86;26077;-79
2021/01/21 02:52:06;;;;;;;40.88;20.77;;;;;;;2.42;80.23;99665.98;1634670;86;25726;-78
2021/01/21 02:54:56;;;;;;;43.63;21.60;;;;;;;2.40;80.12;99663.16;1629548;86;25821;-79
2021/01/21 02:57:35;;;;;;;37.28;19.23;;;;;;;2.36;80.08;99667.94;1634773;86;27539;-79
2021/01/21 03:00:10;;;;;;;37.90;19.40;;;;;;;2.33;80.04;99663.79;1656024;85;26061;-79
2021/01/21 03:02:54;;;;;;;44.03;20.80;;;;;;;2.31;80.00;99663.12;1612615;87;25839;-79
2021/01/21 03:05:22;;;;;;;36.55;20.48;;;;;;;2.24;80.06;99662.59;1605807;87;26467;-79
2021/01/21 03:07:51;;;;;;;37.98;20.60;;;;;;;2.20;80.22;99658.61;1639299;87;25826;-78
2021/01/21 03:10:21;;;;;;;43.17;21.12;;;;;;;2.17;80.28;99662.39;1594085;87;27685;-79
2021/01/21 03:12:57;;;;;;;44.43;22.83;;;;;;;2.15;80.39;99655.12;1612410;86;25745;-78
2021/01/21 03:15:26;;;;;;;44.80;20.48;;;;;;;2.15;80.49;99655.12;1612595;86;26080;-78
2021/01/21 03:18:06;;;;;;;42.03;20.60;;;;;;;2.20;80.57;99654.13;1790101;79;25709;-79
2021/01/21 03:20:35;;;;;;;40.15;20.10;;;;;;;2.16;80.63;99658.59;1728401;81;26456;-79
2021/01/21 03:23:03;;;;;;;40.83;21.05;;;;;;;2.15;80.59;99664.36;1747672;80;27239;-79
2021/01/21 03:25:31;;;;;;;44.70;20.10;;;;;;;2.13;80.59;99655.77;1723656;81;26029;-79
2021/01/21 03:28:02;;;;;;;41.08;20.50;;;;;;;2.10;80.62;99655.23;1717706;82;25391;-78
2021/01/21 03:30:32;;;;;;;42.65;21.33;;;;;;;2.10;80.69;99649.95;1704400;81;25902;-78
2021/01/21 03:32:59;;;;;;;43.92;21.45;;;;;;;2.08;80.74;99656.72;1689832;82;26464;-78
2021/01/21 03:35:28;;;;;;;41.00;22.27;;;;;;;2.07;80.75;99664.32;1743441;81;26823;-78
2021/01/21 03:37:55;;;;;;;47.53;23.67;;;;;;;2.08;80.81;99667.77;1714346;81;26364;-78
2021/01/21 03:40:23;;;;;;;41.15;20.97;;;;;;;2.09;80.79;99670.76;1658839;80;25843;-79
2021/01/21 03:42:52;;;;;;;42.83;22.70;;;;;;;2.08;80.79;99667.28;1675767;84;25837;-79
2021/01/21 03:45:29;;;;;;;43.73;21.07;;;;;;;2.13;80.81;99664.17;1798328;79;25762;-79
2021/01/21 03:47:58;;;;;;;41.95;20.23;;;;;;;2.08;80.84;99661.16;1702430;80;25872;-79
2021/01/21 03:50:26;;;;;;;39.75;21.75;;;;;;;2.06;80.85;99663.97;1737894;80;27359;-79
2021/01/21 03:52:53;;;;;;;41.00;21.50;;;;;;;2.05;80.91;99660.17;1732931;80;25794;-79
2021/01/21 03:55:23;;;;;;;42.00;22.70;;;;;;;2.04;81.01;99661.97;1709187;81;25757;-79
2021/01/21 03:58:00;;;;;;;46.08;22.35;;;;;;;2.11;81.11;99664.83;1801490;79;25760;-78
2021/01/21 04:00:29;;;;;;;47.45;22.45;;;;;;;2.08;81.09;99659.84;1757133;80;25865;-79
2021/01/21 04:02:58;;;;;;;41.75;22.98;;;;;;;2.09;81.05;99662.83;1712416;81;27623;-78
2021/01/21 04:05:44;;;;;;;45.48;22.50;;;;;;;2.09;81.12;99658.87;1770530;80;25792;-79
2021/01/21 04:08:12;;;;;;;50.45;23.85;;;;;;;2.09;81.21;99656.23;1694416;81;26277;-78
2021/01/21 04:10:49;;;;;;;47.55;23.62;;;;;;;2.15;81.21;99660.40;1825247;77;25721;-78
2021/01/21 04:13:24;;;;;;;48.78;24.18;;;;;;;2.11;81.25;99654.26;1786140;78;25814;-78
2021/01/21 04:15:52;;;;;;;48.08;24.00;;;;;;;2.13;81.28;99653.61;1790579;79;27072;-79
2021/01/21 04:18:20;;;;;;;55.70;25.77;;;;;;;2.14;81.25;99656.57;1797010;78;25892;-78
2021/01/21 04:20:49;;;;;;;46.25;23.73;;;;;;;2.15;81.37;99649.00;1748086;80;25912;-79
2021/01/21 04:23:17;;;;;;;56.60;26.55;;;;;;;2.16;81.38;99651.99;1748518;78;25883;-79
2021/01/21 04:25:44;;;;;;;53.75;25.55;;;;;;;2.17;81.41;99644.38;1778880;78;25774;-79
2021/01/21 04:28:12;;;;;;;53.23;26.82;;;;;;;2.18;81.53;99644.22;1801431;78;27602;-79
2021/01/21 04:30:41;;;;;;;52.23;25.77;;;;;;;2.20;81.53;99649.37;1775250;78;25938;-79
2021/01/21 04:33:08;;;;;;;52.17;24.43;;;;;;;2.20;81.57;99646.73;1759152;79;25916;-78
2021/01/21 04:35:36;;;;;;;51.40;26.12;;;;;;;2.21;81.64;99648.37;1774881;78;26376;-78
2021/01/21 04:38:04;;;;;;;59.95;27.05;;;;;;;2.22;81.63;99648.20;1806648;78;26463;-79
2021/01/21 04:40:39;;;;;;;58.75;27.98;;;;;;;2.23;81.66;99643.75;1741570;79;30283;-79
2021/01/21 04:43:32;;;;;;;56.18;26.33;;;;;;;2.29;81.70;99640.48;1831581;77;25731;-78
2021/01/21 04:46:02;;;;;;;56.98;28.92;;;;;;;2.25;81.72;99643.10;1757273;78;25452;-78
2021/01/21 04:48:30;;;;;;;55.63;27.85;;;;;;;2.25;81.77;99646.58;1761051;80;28198;-78
2021/01/21 04:51:09;;;;;;;58.98;28.05;;;;;;;2.31;81.77;99644.63;1827356;77;25693;-79
2021/01/21 04:53:43;;;;;;;52.40;25.05;;;;;;;2.28;81.75;99654.69;1758066;78;25829;-79
2021/01/21 04:56:18;;;;;;;61.08;27.65;;;;;;;2.28;81.74;99650.73;1768766;79;27323;-78
2021/01/21 04:58:51;;;;;;;55.12;27.15;;;;;;;2.28;81.81;99651.56;1796773;78;26932;-78
2021/01/21 05:01:32;;;;;;;68.50;37.50;;;;;;;2.36;81.82;99646.80;1778047;79;32632;-79
2021/01/21 05:04:01;;;;;;;61.48;29.90;;;;;;;2.50;81.31;99642.26;1741358;80;25689;-79
2021/01/21 05:06:33;;;;;;;61.23;30.27;;;;;;;2.49;81.37;99652.97;1728867;82;27605;-78
2021/01/21 05:09:03;;;;;;;61.23;27.45;;;;;;;2.45;81.43;99650.30;1731350;81;26459;-78
2021/01/21 05:11:32;;;;;;;55.73;27.57;;;;;;;2.43;81.58;99651.80;1675882;83;25888;-78
2021/01/21 05:14:09;;;;;;;61.63;30.45;;;;;;;2.50;81.59;99652.00;1801980;79;25759;-78
2021/01/21 05:16:55;;;;;;;58.00;27.80;;;;;;;2.43;81.58;99653.61;1727053;81;25931;-78
2021/01/21 05:19:24;;;;;;;62.55;27.85;;;;;;;2.43;81.60;99665.50;1689591;81;27823;-78
2021/01/21 05:21:53;;;;;;;62.48;28.73;;;;;;;2.43;81.63;99667.66;1741040;82;26828;-79
2021/01/21 05:24:47;;;;;;;57.78;29.15;;;;;;;2.50;81.56;99669.17;1783994;79;25642;-78
2021/01/21 05:27:22;;;;;;;53.20;26.40;;;;;;;2.44;81.64;99665.84;1709856;81;26061;-78
2021/01/21 05:29:58;;;;;;;57.33;27.90;;;;;;;2.44;81.65;99672.45;1713992;81;27401;-78
2021/01/21 05:32:26;;;;;;;52.53;27.35;;;;;;;2.44;81.69;99661.36;1743772;81;26043;-79
2021/01/21 05:35:14;;;;;;;54.85;25.60;;;;;;;2.51;81.70;99666.36;1827886;77;25823;-78
2021/01/21 05:37:54;;;;;;;50.85;24.47;;;;;;;2.47;81.72;99671.63;1730768;80;25917;-78
2021/01/21 05:40:38;;;;;;;47.65;24.67;;;;;;;2.48;81.79;99673.79;1724632;80;27390;-78
2021/01/21 05:43:09;;;;;;;62.95;28.10;;;;;;;2.51;81.82;99674.78;1733013;80;26045;-78
2021/01/21 05:45:37;;;;;;;;;;;;;;;2.51;81.80;99671.65;1707210;80;25803;-78
2021/01/21 05:48:07;;;;;;;51.98;25.45;;;;;;;2.53;81.78;99671.00;1740746;80;26518;-78
2021/01/21 05:50:36;;;;;;;51.30;26.00;;;;;;;2.53;81.85;99675.45;1736900;81;25855;-78
2021/01/21 05:53:09;;;;;;;48.65;25.40;;;;;;;2.55;81.82;99671.66;1747696;80;29089;-79
2021/01/21 05:55:39;;;;;;;52.55;28.23;;;;;;;2.56;81.79;99675.14;1733412;80;26509;-78
2021/01/21 05:58:07;;;;;;;59.03;27.07;;;;;;;2.57;81.77;99669.69;1736517;80;25784;-78
2021/01/21 06:00:34;;;;;;;53.25;25.95;;;;;;;2.59;81.75;99660.30;1659150;84;26214;-78
2021/01/21 06:03:05;;;;;;;51.48;25.27;;;;;;;2.59;81.73;99663.75;1691985;83;25852;-78
2021/01/21 06:05:57;;;;;;;52.13;23.98;;;;;;;2.67;81.65;99671.73;1792138;79;25426;-78
2021/01/21 06:08:28;;;;;;;52.95;25.27;;;;;;;2.60;81.70;99673.35;1715936;81;26647;-78
2021/01/21 06:10:57;;;;;;;56.42;24.50;;;;;;;2.61;81.68;99670.22;1684420;82;28386;-81
2021/01/21 06:13:24;;;;;;;43.80;22.02;;;;;;;2.61;81.72;99661.77;1744306;81;25718;-78
2021/01/21 06:15:53;;;;;;;49.08;24.57;;;;;;;2.62;81.65;99658.64;1642452;84;25784;-78
2021/01/21 06:18:20;;;;;;;52.55;26.50;;;;;;;2.63;81.61;99668.25;1694636;82;26186;-78
2021/01/21 06:21:00;;;;;;;50.75;23.47;;;;;;;2.63;81.61;99673.02;1668654;83;25792;-79
2021/01/21 06:23:44;;;;;;;49.30;25.90;;;;;;;2.67;81.55;99666.94;1793670;79;25903;-78
2021/01/21 06:26:29;;;;;;;48.30;24.85;;;;;;;2.62;81.60;99662.61;1747356;80;26639;-78
2021/01/21 06:28:59;;;;;;;49.90;24.72;;;;;;;2.62;81.64;99671.38;1717760;82;27424;-78
2021/01/21 06:31:30;;;;;;;43.42;24.25;;;;;;;2.64;81.66;99675.17;1735189;82;26042;-78
2021/01/21 06:33:59;;;;;;;55.25;26.75;;;;;;;2.65;81.67;99674.20;1702640;82;25796;-78
2021/01/21 06:36:28;;;;;;;45.83;24.52;;;;;;;2.67;81.71;99678.84;1705434;82;26546;-78
2021/01/21 06:38:58;;;;;;;49.00;24.32;;;;;;;2.66;81.73;99680.64;1702708;82;25906;-79
2021/01/21 06:41:28;;;;;;;;;;;;;;;2.68;81.71;99683.12;1731585;81;27648;-78
2021/01/21 06:43:56;;;;;;;42.17;22.22;;;;;;;2.68;81.69;99689.73;1733989;82;26148;-78
2021/01/21 06:46:25;;;;;;;48.98;24.23;;;;;;;2.67;81.77;99695.53;1703507;82;26334;-78
2021/01/21 06:48:52;;;;;;;50.58;25.35;;;;;;;2.68;81.79;99693.21;1702770;82;25706;-78
2021/01/21 06:51:21;;;;;;;56.80;27.85;;;;;;;2.70;81.81;99689.91;1711113;82;26327;-79
2021/01/21 06:53:53;;;;;;;53.80;28.85;;;;;;;2.73;81.85;99693.58;1738306;82;27693;-78
2021/01/21 06:56:31;;;;;;;51.48;27.90;;;;;;;2.75;81.82;99698.69;1706460;82;26046;-78
2021/01/21 06:58:59;;;;;;;51.10;26.17;;;;;;;2.77;81.81;99697.55;1716537;82;25889;-79
2021/01/21 07:01:42;;;;;;;47.67;23.80;;;;;;;2.79;81.81;99698.70;1690134;82;26143;-78
2021/01/21 07:04:18;;;;;;;54.05;25.27;;;;;;;2.81;81.80;99696.24;1713825;82;26222;-78
2021/01/21 07:07:06;;;;;;;46.37;23.67;;;;;;;2.85;81.83;99689.64;1711553;82;27598;-79
2021/01/21 07:09:36;;;;;;;46.05;24.87;;;;;;;2.87;81.75;99685.02;1701864;82;25849;-78
2021/01/21 07:12:03;;;;;;;;;;;;;;;2.88;81.68;99687.18;1718506;82;26313;-78
2021/01/21 07:14:34;;;;;;;47.10;25.17;;;;;;;2.87;81.57;99684.19;1708934;82;25752;-78
2021/01/21 07:17:05;;;;;;;48.17;26.15;;;;;;;2.86;81.69;99683.87;1700972;82;25833;-78
2021/01/21 07:19:45;;;;;;;48.55;25.48;;;;;;;2.89;81.63;99691.47;1732034;82;27482;-78
2021/01/21 07:22:21;;;;;;;45.75;25.25;;;;;;;2.92;81.61;99692.48;1711017;81;25792;-79
2021/01/21 07:25:07;;;;;;;54.65;25.72;;;;;;;2.93;81.68;99694.16;1739544;81;25962;-78
2021/01/21 07:27:36;;;;;;;51.88;25.82;;;;;;;2.96;81.63;99692.49;1714846;81;25910;-78
2021/01/21 07:30:25;;;;;;;47.03;24.90;;;;;;;2.96;81.56;99693.33;1740705;81;25749;-79
2021/01/21 07:33:23;;;;;;;44.98;24.05;;;;;;;2.98;81.56;99689.19;1651364;84;27619;-79
2021/01/21 07:35:51;;;;;;;44.25;23.62;;;;;;;3.01;81.63;99688.87;1666735;84;26034;-78
2021/01/21 07:38:44;;;;;;;51.77;26.65;;;;;;;3.03;81.58;99685.58;1697461;83;25863;-78
2021/01/21 07:41:47;;;;;;;51.33;26.30;;;;;;;3.10;81.49;99682.63;1789840;79;25754;-78
2021/01/21 07:44:14;;;;;;;45.43;24.85;;;;;;;3.04;81.54;99684.09;1703929;83;25811;-78
2021/01/21 07:46:42;;;;;;;54.08;26.45;;;;;;;3.05;81.42;99681.79;1669522;84;28463;-78
2021/01/21 07:49:23;;;;;;;46.28;25.02;;;;;;;3.06;81.43;99684.75;1699987;83;26178;-78
2021/01/21 07:52:03;;;;;;;;;;;;;;;3.10;81.69;99682.11;1677843;83;25881;-79
2021/01/21 07:54:35;;;;;;;51.02;25.57;;;;;;;3.14;81.52;99683.44;1672223;84;25996;-79
2021/01/21 07:57:02;;;;;;;58.33;27.80;;;;;;;3.17;81.45;99682.30;1675552;84;25852;-78
2021/01/21 07:59:30;;;;;;;61.20;30.43;;;;;;;3.20;81.39;99678.50;1659745;84;28461;-79
2021/01/21 08:01:58;;;;;;;57.85;32.45;;;;;;;3.23;81.34;99677.67;1657190;83;25893;-79
2021/01/21 08:04:26;;;;;;;60.73;35.52;;;;;;;3.27;81.23;99675.55;1685105;83;25844;-79
2021/01/21 08:06:57;;;;;;;56.77;27.20;;;;;;;3.26;81.12;99676.04;1660964;83;25844;-79
2021/01/21 08:09:25;;;;;;;72.03;34.73;;;;;;;3.29;81.16;99681.02;1702044;83;25789;-79
2021/01/21 08:11:52;;;;;;;53.92;26.48;;;;;;;3.32;81.05;99675.88;1674869;83;27563;-79
2021/01/21 08:14:19;;;;;;;93.20;43.38;;;;;;;3.35;81.03;99680.85;1663702;83;26109;-79
2021/01/21 08:16:50;;;;;;;51.18;27.48;;;;;;;3.38;80.96;99677.89;1647358;83;25929;-78
2021/01/21 08:19:17;;;;;;;63.42;32.45;;;;;;;3.40;80.93;99676.71;1662007;83;26070;-78
2021/01/21 08:21:45;;;;;;;52.83;28.77;;;;;;;3.42;80.85;99676.05;1676509;83;26158;-79
2021/01/21 08:24:13;;;;;;;47.88;27.87;;;;;;;3.45;80.81;99672.25;1685449;82;27540;-79
2021/01/21 08:26:40;;;;;;;51.88;27.70;;;;;;;3.48;80.74;99670.61;1652043;82;26482;-79
2021/01/21 08:29:13;;;;;;;48.68;25.82;;;;;;;3.50;80.62;99671.28;1638994;82;25799;-79
2021/01/21 08:31:49;;;;;;;45.00;24.87;;;;;;;3.52;80.67;99673.27;1686087;84;26285;-79
2021/01/21 08:34:24;;;;;;;43.42;24.32;;;;;;;3.57;80.56;99672.28;1688244;82;25929;-79
2021/01/21 08:37:04;;;;;;;49.75;27.27;;;;;;;3.60;80.58;99676.75;1712423;82;26619;-79
2021/01/21 08:39:35;;;;;;;44.67;25.00;;;;;;;3.64;80.50;99672.77;1691954;82;25933;-79
2021/01/21 08:42:05;;;;;;;45.12;23.90;;;;;;;3.67;80.41;99675.10;1664409;81;32662;-79
2021/01/21 08:44:33;;;;;;;45.90;25.77;;;;;;;3.69;80.29;99666.98;1681923;83;25840;-79
2021/01/21 08:47:02;;;;;;;45.80;23.60;;;;;;;3.72;80.28;99675.41;1688800;82;25971;-79
2021/01/21 08:49:34;;;;;;;47.45;24.77;;;;;;;3.75;80.26;99673.77;1667427;82;28614;-79
2021/01/21 08:52:10;;;;;;;48.35;24.63;;;;;;;3.81;80.21;99678.40;1686224;83;26485;-79
2021/01/21 08:54:54;;;;;;;50.67;24.87;;;;;;;3.85;80.18;99678.88;1706832;82;25433;-79
2021/01/21 08:57:24;;;;;;;48.08;26.15;;;;;;;3.88;80.01;99675.42;1680235;82;25613;-79
2021/01/21 08:59:52;;;;;;;57.38;29.05;;;;;;;3.91;79.98;99680.37;1664800;83;25430;-80
2021/01/21 09:02:42;;;;;;;51.77;30.08;;;;;;;3.95;79.86;99682.21;1695520;82;27536;-79
2021/01/21 09:05:13;;;;;;;51.13;26.77;;;;;;;3.98;79.95;99677.08;1698051;83;25814;-79
2021/01/21 09:07:41;;;;;;;47.05;24.27;;;;;;;4.02;79.89;99679.72;1675633;84;25914;-79
2021/01/21 09:10:12;;;;;;;57.65;30.17;;;;;;;4.05;79.82;99676.23;1652259;83;25809;-80
2021/01/21 09:12:40;;;;;;;45.17;24.00;;;;;;;4.12;79.78;99679.04;1666638;83;26592;-79
2021/01/21 09:15:14;;;;;;;44.40;24.63;;;;;;;4.16;79.72;99679.03;1694609;82;28335;-79
2021/01/21 09:17:42;;;;;;;43.45;23.42;;;;;;;4.24;79.64;99676.36;1683693;83;25810;-81
2021/01/21 09:20:27;;;;;;;43.25;22.13;;;;;;;4.32;79.59;99671.87;1656192;83;25919;-81
2021/01/21 09:22:55;;;;;;;42.73;23.10;;;;;;;4.42;79.47;99665.06;1680852;83;25774;-79
2021/01/21 09:25:27;;;;;;;42.30;22.85;;;;;;;4.54;79.47;99658.39;1683219;83;25897;-78
2021/01/21 09:27:56;;;;;;;43.40;23.27;;;;;;;4.65;79.37;99656.20;1736008;82;28487;-77
2021/01/21 09:30:24;;;;;;;42.13;22.80;;;;;;;4.77;79.24;99657.95;1666919;82;26148;-77
2021/01/21 09:32:52;;;;;;;41.77;23.52;;;;;;;4.83;78.94;99657.30;1671125;82;26330;-78
2021/01/21 09:35:23;;;;;;;47.08;25.48;;;;;;;4.89;78.70;99647.31;1673177;82;25826;-79
2021/01/21 09:37:54;;;;;;;44.60;23.50;;;;;;;4.93;78.55;99657.06;1704202;82;26488;-78
2021/01/21 09:40:23;;;;;;;;;;;;;;;4.94;78.28;99656.88;1686321;81;28026;-79
2021/01/21 09:42:54;;;;;;;42.40;21.65;;;;;;;4.94;78.11;99655.55;1685840;83;26072;-81
2021/01/21 09:45:22;;;;;;;39.98;21.95;;;;;;;4.93;78.20;99657.90;1689579;83;25722;-80
2021/01/21 09:47:50;;;;;;;38.85;21.87;;;;;;;4.95;77.96;99652.41;1684981;83;26492;-79
2021/01/21 09:50:20;;;;;;;37.75;22.85;;;;;;;4.97;78.09;99651.24;1639844;83;25869;-79
2021/01/21 09:52:48;;;;;;;42.33;23.47;;;;;;;5.00;78.02;99650.91;1663810;83;27436;-78
2021/01/21 09:55:16;;;;;;;41.48;22.22;;;;;;;5.04;77.87;99652.20;1667133;83;25850;-79
2021/01/21 09:57:45;;;;;;;36.28;20.37;;;;;;;5.09;77.88;99643.20;1707721;83;26467;-78
2021/01/21 10:00:15;;;;;;;41.28;23.80;;;;;;;5.12;77.58;99645.52;1642689;83;25803;-78
2021/01/21 10:02:43;;;;;;;32.90;19.60;;;;;;;5.15;77.57;99650.98;1656066;84;25785;-79
2021/01/21 10:05:24;;;;;;;;;;;;;;;;;;;;;
2021/01/21 10:07:54;;;;;;;40.43;23.67;;;;;;;5.25;77.21;99634.31;1791948;79;25730;-77
2021/01/21 10:10:22;;;;;;;40.28;23.27;;;;;;;5.24;77.28;99637.95;1713324;80;26527;-78
2021/01/21 10:12:50;;;;;;;37.63;20.85;;;;;;;5.29;77.16;99641.76;1739593;80;27542;-78
2021/01/21 10:15:17;;;;;;;37.15;22.40;;;;;;;5.34;77.01;99636.75;1758989;80;26004;-78
2021/01/21 10:17:44;;;;;;;35.20;20.30;;;;;;;5.39;76.87;99638.85;1710777;81;25958;-77
2021/01/21 10:20:13;;;;;;;36.20;19.87;;;;;;;5.43;76.81;99640.98;1723500;80;25879;-77
2021/01/21 10:22:41;;;;;;;36.40;19.82;;;;;;;5.45;76.84;99634.19;1729346;81;25865;-77
2021/01/21 10:25:09;;;;;;;38.80;20.02;;;;;;;5.49;76.73;99634.16;1766667;80;27699;-77
2021/01/21 10:27:36;;;;;;;33.85;18.62;;;;;;;5.48;76.28;99631.16;1718626;80;26132;-77
2021/01/21 10:30:05;;;;;;;34.60;18.98;;;;;;;5.45;76.14;99627.02;1739130;80;25402;-77
2021/01/21 10:32:34;;;;;;;36.85;19.42;;;;;;;5.45;76.42;99618.25;1738205;81;26161;-77
2021/01/21 10:35:02;;;;;;;39.18;21.05;;;;;;;5.46;76.58;99611.42;1734292;81;25847;-77
2021/01/21 10:37:29;;;;;;;38.17;20.60;;;;;;;5.53;76.65;99618.19;1721908;80;28535;-78
2021/01/21 10:39:56;;;;;;;33.45;19.27;;;;;;;5.58;76.42;99614.47;1715185;80;25764;-78
2021/01/21 10:42:24;;;;;;;36.73;19.23;;;;;;;5.62;76.56;99613.13;1729793;80;26494;-78
2021/01/21 10:44:51;;;;;;;37.38;19.45;;;;;;;5.69;76.42;99607.41;1762378;80;25841;-78
2021/01/21 10:47:19;;;;;;;40.55;19.73;;;;;;;5.73;76.27;99602.58;1714927;81;26563;-78
2021/01/21 10:49:46;;;;;;;39.18;21.17;;;;;;;5.75;76.03;99596.05;1741994;80;27525;-79
2021/01/21 10:52:13;;;;;;;37.50;19.62;;;;;;;5.78;76.02;99590.39;1731127;80;25846;-78
2021/01/21 10:54:41;;;;;;;35.80;18.98;;;;;;;5.81;75.96;99590.05;1763108;80;26411;-79
2021/01/21 10:57:08;;;;;;;37.65;21.45;;;;;;;5.85;76.00;99591.36;1701490;80;25899;-79
2021/01/21 10:59:35;;;;;;;34.20;20.10;;;;;;;5.89;75.89;99579.36;1731141;81;25818;-79
2021/01/21 11:02:03;;;;;;;31.90;18.30;;;;;;;5.92;75.80;99574.19;1741311;80;27089;-78
2021/01/21 11:04:30;;;;;;;39.70;22.00;;;;;;;5.91;75.69;99572.02;1732649;80;26293;-78
2021/01/21 11:06:58;;;;;;;40.60;21.40;;;;;;;5.87;75.45;99575.23;1692596;81;25881;-78
2021/01/21 11:12:08;;;;;;;35.80;22.22;;;;;;;5.83;75.27;99593.34;1795720;79;25902;-78
2021/01/21 11:14:36;;;;;;;34.00;20.02;;;;;;;5.76;75.46;99595.06;1702346;80;26164;-79
2021/01/21 11:17:03;;;;;;;33.78;18.50;;;;;;;5.75;75.55;99594.72;1732518;80;28301;-79
2021/01/21 11:19:32;;;;;;;30.30;16.17;;;;;;;5.80;75.54;99588.87;1757471;80;26129;-78
2021/01/21 11:21:59;;;;;;;25.92;15.80;;;;;;;5.83;75.40;99603.14;1707775;80;26398;-78
2021/01/21 11:24:26;;;;;;;26.77;15.32;;;;;;;5.81;75.17;99609.14;1673870;83;25949;-78
2021/01/21 11:26:54;;;;;;;29.98;18.55;;;;;;;5.83;75.33;99609.29;1678595;83;25743;-78
2021/01/21 11:29:21;;;;;;;29.80;16.45;;;;;;;5.87;75.57;99601.80;1701715;82;27528;-78
2021/01/21 11:31:49;;;;;;;27.17;16.32;;;;;;;5.91;75.49;99608.41;1639927;83;26201;-78
2021/01/21 11:34:16;;;;;;;28.02;16.07;;;;;;;5.95;75.42;99603.05;1675902;83;25410;-77
2021/01/21 11:36:43;;;;;;;32.88;16.65;;;;;;;5.97;75.43;99597.04;1669361;83;26028;-80
2021/01/21 11:39:11;;;;;;;24.25;15.13;;;;;;;6.00;75.30;99595.36;1699188;83;25671;-82
2021/01/21 11:41:38;;;;;;;31.00;17.87;;;;;;;6.00;75.17;99597.52;1660374;83;27550;-85
2021/01/21 11:44:06;;;;;;;30.65;19.57;;;;;;;5.98;75.05;99587.58;1673036;83;26029;-80
2021/01/21 11:46:34;;;;;;;27.77;16.05;;;;;;;5.99;75.19;99584.39;1678523;83;25959;-78
2021/01/21 11:49:01;;;;;;;32.60;17.27;;;;;;;6.01;75.06;99586.36;1700582;83;26432;-78
2021/01/21 11:51:28;;;;;;;31.20;18.65;;;;;;;5.98;74.96;99592.06;1635862;83;25786;-78
2021/01/21 11:53:56;;;;;;;34.98;21.23;;;;;;;5.98;75.08;99586.74;1671229;83;27549;-77